sensor_id;sensor_type;location;lat;lon;timestamp;pressure;altitude;pressure_sealevel;temperature;humidity
63654;BME280;49809;47.418;19.080;2023-03-19T00:02:27;100914.94;;;1.41;92.65
63654;BME280;49809;47.418;19.080;2023-03-19T00:05:37;100907.81;;;1.35;92.85
63654;BME280;49809;47.418;19.080;2023-03-19T00:08:39;100908.69;;;1.27;93.14
63654;BME280;49809;47.418;19.080;2023-03-19T00:11:46;100911.28;;;1.27;93.35
63654;BME280;49809;47.418;19.080;2023-03-19T00:14:52;100913.28;;;1.25;93.29
63654;BME280;49809;47.418;19.080;2023-03-19T00:17:56;100897.94;;;1.30;93.84
63654;BME280;49809;47.418;19.080;2023-03-19T00:20:59;100900.06;;;1.27;93.57
63654;BME280;49809;47.418;19.080;2023-03-19T00:24:03;100908.13;;;1.17;93.50
63654;BME280;49809;47.418;19.080;2023-03-19T00:27:06;100905.88;;;1.14;93.55
63654;BME280;49809;47.418;19.080;2023-03-19T00:30:16;100906.22;;;1.11;93.63
63654;BME280;49809;47.418;19.080;2023-03-19T00:33:19;100897.41;;;1.12;93.64
63654;BME280;49809;47.418;19.080;2023-03-19T00:36:25;100894.34;;;1.09;94.26
63654;BME280;49809;47.418;19.080;2023-03-19T00:39:30;100898.13;;;1.06;94.33
63654;BME280;49809;47.418;19.080;2023-03-19T00:42:36;100895.03;;;1.03;94.45
63654;BME280;49809;47.418;19.080;2023-03-19T00:45:59;100890.34;;;0.98;94.48
63654;BME280;49809;47.418;19.080;2023-03-19T00:49:03;100890.69;;;0.95;94.59
63654;BME280;49809;47.418;19.080;2023-03-19T00:52:06;100895.91;;;0.95;94.61
63654;BME280;49809;47.418;19.080;2023-03-19T00:55:09;100888.41;;;0.92;94.89
63654;BME280;49809;47.418;19.080;2023-03-19T00:58:13;100885.25;;;0.82;94.99
63654;BME280;49809;47.418;19.080;2023-03-19T01:01:50;100889.81;;;0.80;94.88
63654;BME280;49809;47.418;19.080;2023-03-19T01:05:29;100889.81;;;0.80;95.33
63654;BME280;49809;47.418;19.080;2023-03-19T01:13:01;100883.38;;;0.68;95.44
63654;BME280;49809;47.418;19.080;2023-03-19T01:16:05;100877.84;;;0.71;95.82
63654;BME280;49809;47.418;19.080;2023-03-19T01:19:16;100880.38;;;0.79;96.32
63654;BME280;49809;47.418;19.080;2023-03-19T01:22:20;100871.94;;;0.77;96.03
63654;BME280;49809;47.418;19.080;2023-03-19T01:25:23;100877.84;;;0.71;95.62
63654;BME280;49809;47.418;19.080;2023-03-19T01:28:33;100882.66;;;0.82;96.48
63654;BME280;49809;47.418;19.080;2023-03-19T01:31:38;100884.16;;;0.76;96.34
63654;BME280;49809;47.418;19.080;2023-03-19T01:34:42;100880.75;;;0.76;96.12
63654;BME280;49809;47.418;19.080;2023-03-19T01:37:45;100881.34;;;0.78;95.95
63654;BME280;49809;47.418;19.080;2023-03-19T01:40:48;100884.16;;;0.76;95.48
63654;BME280;49809;47.418;19.080;2023-03-19T01:43:52;100880.97;;;0.66;95.26
63654;BME280;49809;47.418;19.080;2023-03-19T01:46:58;100879.19;;;0.59;95.43
63654;BME280;49809;47.418;19.080;2023-03-19T01:50:18;100884.47;;;0.51;95.59
63654;BME280;49809;47.418;19.080;2023-03-19T01:53:31;100881.88;;;0.51;96.14
63654;BME280;49809;47.418;19.080;2023-03-19T01:56:38;100886.62;;;0.47;95.91
63654;BME280;49809;47.418;19.080;2023-03-19T01:59:51;100894.22;;;0.49;96.07
63654;BME280;49809;47.418;19.080;2023-03-19T02:03:04;100892.06;;;0.60;96.47
63654;BME280;49809;47.418;19.080;2023-03-19T02:06:14;100889.97;;;0.56;96.28
63654;BME280;49809;47.418;19.080;2023-03-19T02:09:44;100888.41;;;0.47;96.13
63654;BME280;49809;47.418;19.080;2023-03-19T02:12:50;100890.66;;;0.50;96.39
63654;BME280;49809;47.418;19.080;2023-03-19T02:15:57;100895.84;;;0.50;96.48
63654;BME280;49809;47.418;19.080;2023-03-19T02:19:01;100887.75;;;0.44;96.33
63654;BME280;49809;47.418;19.080;2023-03-19T02:22:13;100889.72;;;0.42;96.12
63654;BME280;49809;47.418;19.080;2023-03-19T02:25:32;100888.25;;;0.40;96.35
63654;BME280;49809;47.418;19.080;2023-03-19T02:28:46;100882.88;;;0.41;96.26
63654;BME280;49809;47.418;19.080;2023-03-19T02:31:54;100893.91;;;0.52;96.25
63654;BME280;49809;47.418;19.080;2023-03-19T02:34:59;100886.94;;;0.44;96.18
63654;BME280;49809;47.418;19.080;2023-03-19T02:38:26;100875.44;;;0.38;96.07
63654;BME280;49809;47.418;19.080;2023-03-19T02:41:33;100874.81;;;0.28;96.26
63654;BME280;49809;47.418;19.080;2023-03-19T02:44:37;100881.34;;;0.24;96.46
63654;BME280;49809;47.418;19.080;2023-03-19T02:47:41;100876.72;;;0.34;96.76
63654;BME280;49809;47.418;19.080;2023-03-19T02:50:47;100875.50;;;0.22;96.78
63654;BME280;49809;47.418;19.080;2023-03-19T02:53:56;100880.06;;;0.20;97.14
63654;BME280;49809;47.418;19.080;2023-03-19T02:57:03;100870.53;;;0.35;97.49
63654;BME280;49809;47.418;19.080;2023-03-19T03:00:07;100870.38;;;0.37;97.58
63654;BME280;49809;47.418;19.080;2023-03-19T03:03:15;100864.81;;;0.40;97.39
63654;BME280;49809;47.418;19.080;2023-03-19T03:06:19;100865.13;;;0.45;97.09
63654;BME280;49809;47.418;19.080;2023-03-19T03:09:22;100872.19;;;0.59;96.56
63654;BME280;49809;47.418;19.080;2023-03-19T03:12:27;100867.13;;;0.66;95.95
63654;BME280;49809;47.418;19.080;2023-03-19T03:15:36;100870.41;;;0.60;95.78
63654;BME280;49809;47.418;19.080;2023-03-19T03:18:43;100867.34;;;0.56;95.72
63654;BME280;49809;47.418;19.080;2023-03-19T03:21:50;100871.69;;;0.64;96.00
63654;BME280;49809;47.418;19.080;2023-03-19T03:24:54;100866.59;;;0.70;95.27
63654;BME280;49809;47.418;19.080;2023-03-19T03:28:00;100862.66;;;0.74;94.90
63654;BME280;49809;47.418;19.080;2023-03-19T03:35:06;100867.72;;;0.76;94.40
63654;BME280;49809;47.418;19.080;2023-03-19T03:38:09;100865.19;;;0.60;94.94
63654;BME280;49809;47.418;19.080;2023-03-19T03:41:14;100867.50;;;0.55;95.07
63654;BME280;49809;47.418;19.080;2023-03-19T03:44:18;100872.38;;;0.58;94.70
63654;BME280;49809;47.418;19.080;2023-03-19T03:47:44;100873.06;;;0.52;95.28
63654;BME280;49809;47.418;19.080;2023-03-19T03:50:47;100875.44;;;0.38;94.91
63654;BME280;49809;47.418;19.080;2023-03-19T03:53:56;100878.34;;;0.35;94.97
63654;BME280;49809;47.418;19.080;2023-03-19T03:57:01;100876.12;;;0.24;95.18
63654;BME280;49809;47.418;19.080;2023-03-19T04:00:07;100869.31;;;0.23;95.47
63654;BME280;49809;47.418;19.080;2023-03-19T04:03:14;100859.94;;;0.14;95.62
63654;BME280;49809;47.418;19.080;2023-03-19T04:06:21;100867.09;;;0.12;95.76
63654;BME280;49809;47.418;19.080;2023-03-19T04:09:25;100873.31;;;0.03;96.07
63654;BME280;49809;47.418;19.080;2023-03-19T04:12:29;100866.12;;;0.05;96.25
63654;BME280;49809;47.418;19.080;2023-03-19T04:15:34;100877.69;;;0.03;96.17
63654;BME280;49809;47.418;19.080;2023-03-19T04:18:38;100882.09;;;0.02;96.77
63654;BME280;49809;47.418;19.080;2023-03-19T04:21:45;100883.97;;;0.16;96.87
63654;BME280;49809;47.418;19.080;2023-03-19T04:24:49;100877.84;;;0.09;96.62
63654;BME280;49809;47.418;19.080;2023-03-19T04:27:58;100877.84;;;0.09;96.78
63654;BME280;49809;47.418;19.080;2023-03-19T04:31:06;100876.22;;;0.08;96.57
63654;BME280;49809;47.418;19.080;2023-03-19T04:34:12;100871.00;;;0.08;96.61
63654;BME280;49809;47.418;19.080;2023-03-19T04:37:15;100861.78;;;-0.03;96.39
63654;BME280;49809;47.418;19.080;2023-03-19T04:40:21;100863.25;;;-0.08;96.23
63654;BME280;49809;47.418;19.080;2023-03-19T04:43:28;100847.31;;;-0.05;96.96
63654;BME280;49809;47.418;19.080;2023-03-19T04:46:35;100861.72;;;0.06;97.18
63654;BME280;49809;47.418;19.080;2023-03-19T04:50:01;100857.84;;;0.02;96.76
63654;BME280;49809;47.418;19.080;2023-03-19T04:53:25;100868.31;;;-0.07;96.65
63654;BME280;49809;47.418;19.080;2023-03-19T04:56:39;100868.63;;;-0.10;96.63
63654;BME280;49809;47.418;19.080;2023-03-19T04:59:46;100868.09;;;0.03;96.71
63654;BME280;49809;47.418;19.080;2023-03-19T05:03:14;100875.59;;;-0.02;96.67
63654;BME280;49809;47.418;19.080;2023-03-19T05:06:22;100875.25;;;0.09;96.63
63654;BME280;49809;47.418;19.080;2023-03-19T05:09:29;100880.41;;;0.17;96.21
63654;BME280;49809;47.418;19.080;2023-03-19T05:12:35;100879.75;;;0.15;96.26
63654;BME280;49809;47.418;19.080;2023-03-19T05:15:43;100879.44;;;0.10;96.03
63654;BME280;49809;47.418;19.080;2023-03-19T05:19:09;100884.78;;;0.17;96.19
63654;BME280;49809;47.418;19.080;2023-03-19T05:22:16;100887.84;;;0.28;96.39
63654;BME280;49809;47.418;19.080;2023-03-19T05:25:24;100894.28;;;0.40;95.90
63654;BME280;49809;47.418;19.080;2023-03-19T05:28:29;100892.03;;;0.37;95.90
63654;BME280;49809;47.418;19.080;2023-03-19T05:31:37;100897.34;;;0.44;95.30
63654;BME280;49809;47.418;19.080;2023-03-19T05:35:02;100901.56;;;0.53;95.23
63654;BME280;49809;47.418;19.080;2023-03-19T05:38:41;100907.69;;;0.60;95.34
63654;BME280;49809;47.418;19.080;2023-03-19T05:42:21;100897.81;;;0.78;93.75
63654;BME280;49809;47.418;19.080;2023-03-19T05:45:29;100897.56;;;0.88;93.24
63654;BME280;49809;47.418;19.080;2023-03-19T05:48:42;100901.41;;;1.00;92.89
63654;BME280;49809;47.418;19.080;2023-03-19T05:51:47;100902.28;;;1.15;92.96
63654;BME280;49809;47.418;19.080;2023-03-19T05:54:54;100891.94;;;1.45;91.93
63654;BME280;49809;47.418;19.080;2023-03-19T05:58:00;100897.47;;;1.79;89.77
63654;BME280;49809;47.418;19.080;2023-03-19T06:01:05;100884.91;;;2.04;88.74
63654;BME280;49809;47.418;19.080;2023-03-19T06:04:09;100893.09;;;2.30;87.45
63654;BME280;49809;47.418;19.080;2023-03-19T06:07:13;100898.19;;;2.53;85.67
63654;BME280;49809;47.418;19.080;2023-03-19T06:10:47;100896.22;;;2.76;84.98
63654;BME280;49809;47.418;19.080;2023-03-19T06:13:53;100894.00;;;2.94;83.66
63654;BME280;49809;47.418;19.080;2023-03-19T06:17:17;100902.38;;;3.11;82.72
63654;BME280;49809;47.418;19.080;2023-03-19T06:20:20;100903.19;;;3.33;81.43
63654;BME280;49809;47.418;19.080;2023-03-19T06:23:25;100894.22;;;3.42;81.11
63654;BME280;49809;47.418;19.080;2023-03-19T06:26:31;100907.44;;;3.62;79.58
63654;BME280;49809;47.418;19.080;2023-03-19T06:29:36;100908.16;;;3.83;79.67
63654;BME280;49809;47.418;19.080;2023-03-19T06:32:40;100905.34;;;4.19;77.43
63654;BME280;49809;47.418;19.080;2023-03-19T06:36:03;100912.34;;;4.53;76.79
63654;BME280;49809;47.418;19.080;2023-03-19T06:39:07;100929.63;;;4.89;74.84
63654;BME280;49809;47.418;19.080;2023-03-19T06:42:34;100935.72;;;5.22;73.45
63654;BME280;49809;47.418;19.080;2023-03-19T06:45:45;100926.81;;;5.62;70.72
63654;BME280;49809;47.418;19.080;2023-03-19T06:48:52;100936.91;;;5.92;69.81
63654;BME280;49809;47.418;19.080;2023-03-19T06:52:18;100933.00;;;6.34;67.01
63654;BME280;49809;47.418;19.080;2023-03-19T06:55:25;100938.31;;;6.59;66.02
63654;BME280;49809;47.418;19.080;2023-03-19T06:58:49;100929.69;;;6.83;65.24
63654;BME280;49809;47.418;19.080;2023-03-19T07:01:53;100938.91;;;7.05;64.14
63654;BME280;49809;47.418;19.080;2023-03-19T07:04:55;100935.09;;;7.51;63.28
63654;BME280;49809;47.418;19.080;2023-03-19T07:08:01;100929.91;;;7.69;60.80
63654;BME280;49809;47.418;19.080;2023-03-19T07:11:08;100918.28;;;7.95;61.57
63654;BME280;49809;47.418;19.080;2023-03-19T07:14:13;100916.69;;;8.12;59.76
63654;BME280;49809;47.418;19.080;2023-03-19T07:17:17;100913.03;;;8.13;58.50
63654;BME280;49809;47.418;19.080;2023-03-19T07:20:27;100915.16;;;8.41;57.26
63654;BME280;49809;47.418;19.080;2023-03-19T07:23:31;100915.47;;;8.51;56.98
63654;BME280;49809;47.418;19.080;2023-03-19T07:26:46;100909.38;;;8.50;57.60
63654;BME280;49809;47.418;19.080;2023-03-19T07:29:55;100899.91;;;8.24;58.04
63654;BME280;49809;47.418;19.080;2023-03-19T07:33:20;100910.34;;;8.67;57.51
63654;BME280;49809;47.418;19.080;2023-03-19T07:36:28;100910.88;;;8.76;55.59
63654;BME280;49809;47.418;19.080;2023-03-19T07:39:34;100909.31;;;8.98;54.73
63654;BME280;49809;47.418;19.080;2023-03-19T07:42:46;100912.47;;;9.19;54.19
63654;BME280;49809;47.418;19.080;2023-03-19T07:45:54;100913.19;;;9.49;52.89
63654;BME280;49809;47.418;19.080;2023-03-19T07:48:58;100914.47;;;9.70;51.86
63654;BME280;49809;47.418;19.080;2023-03-19T07:52:06;100910.78;;;9.59;51.18
63654;BME280;49809;47.418;19.080;2023-03-19T07:55:11;100892.03;;;9.95;51.09
63654;BME280;49809;47.418;19.080;2023-03-19T07:58:16;100898.19;;;10.13;50.64
63654;BME280;49809;47.418;19.080;2023-03-19T08:01:25;100899.97;;;10.47;50.36
63654;BME280;49809;47.418;19.080;2023-03-19T08:04:55;100892.16;;;10.97;48.19
63654;BME280;49809;47.418;19.080;2023-03-19T08:07:58;100893.03;;;10.58;47.85
63654;BME280;49809;47.418;19.080;2023-03-19T08:11:21;100890.81;;;10.66;47.08
63654;BME280;49809;47.418;19.080;2023-03-19T08:14:29;100883.81;;;10.88;46.72
63654;BME280;49809;47.418;19.080;2023-03-19T08:17:34;100882.91;;;11.00;46.88
63654;BME280;49809;47.418;19.080;2023-03-19T08:20:39;100890.72;;;11.40;46.05
63654;BME280;49809;47.418;19.080;2023-03-19T08:23:46;100879.88;;;11.41;44.30
63654;BME280;49809;47.418;19.080;2023-03-19T08:26:51;100881.09;;;11.17;44.87
63654;BME280;49809;47.418;19.080;2023-03-19T08:29:58;100876.28;;;11.47;45.67
63654;BME280;49809;47.418;19.080;2023-03-19T08:33:21;100882.53;;;11.41;44.47
63654;BME280;49809;47.418;19.080;2023-03-19T08:36:34;100892.94;;;11.64;44.31
63654;BME280;49809;47.418;19.080;2023-03-19T08:39:37;100887.69;;;11.31;44.76
63654;BME280;49809;47.418;19.080;2023-03-19T08:43:22;100888.53;;;11.53;44.53
63654;BME280;49809;47.418;19.080;2023-03-19T08:46:27;100885.56;;;11.83;43.51
63654;BME280;49809;47.418;19.080;2023-03-19T08:50:12;100884.81;;;11.88;43.37
63654;BME280;49809;47.418;19.080;2023-03-19T08:53:38;100883.97;;;11.49;42.97
63654;BME280;49809;47.418;19.080;2023-03-19T08:56:42;100879.41;;;11.99;42.69
63654;BME280;49809;47.418;19.080;2023-03-19T08:59:48;100879.62;;;12.41;40.87
63654;BME280;49809;47.418;19.080;2023-03-19T09:02:52;100874.34;;;12.68;40.35
63654;BME280;49809;47.418;19.080;2023-03-19T09:05:58;100876.97;;;12.95;39.73
63654;BME280;49809;47.418;19.080;2023-03-19T09:09:23;100876.50;;;13.03;39.03
63654;BME280;49809;47.418;19.080;2023-03-19T09:12:26;100869.09;;;13.37;39.20
63654;BME280;49809;47.418;19.080;2023-03-19T09:15:51;100857.03;;;14.23;36.61
63654;BME280;49809;47.418;19.080;2023-03-19T09:18:58;100844.00;;;14.27;36.76
63654;BME280;49809;47.418;19.080;2023-03-19T09:22:24;100848.88;;;14.45;36.13
63654;BME280;49809;47.418;19.080;2023-03-19T09:25:36;100855.59;;;14.98;35.17
63654;BME280;49809;47.418;19.080;2023-03-19T09:33:53;100855.06;;;15.01;34.07
63654;BME280;49809;47.418;19.080;2023-03-19T10:06:33;100823.28;;;16.69;31.23
63654;BME280;49809;47.418;19.080;2023-03-19T10:18:25;100819.53;;;17.04;30.93
63654;BME280;49809;47.418;19.080;2023-03-19T10:30:33;100809.16;;;16.14;30.55
63654;BME280;49809;47.418;19.080;2023-03-19T10:56:25;100770.28;;;16.37;31.21
63654;BME280;49809;47.418;19.080;2023-03-19T11:05:28;100755.09;;;17.76;30.42
63654;BME280;49809;47.418;19.080;2023-03-19T11:15:27;100727.84;;;18.07;29.41
63654;BME280;49809;47.418;19.080;2023-03-19T11:18:38;100724.16;;;18.73;29.16
63654;BME280;49809;47.418;19.080;2023-03-19T11:22:07;100719.56;;;18.59;28.58
63654;BME280;49809;47.418;19.080;2023-03-19T11:28:29;100713.84;;;18.80;28.17
63654;BME280;49809;47.418;19.080;2023-03-19T11:31:51;100704.00;;;18.89;27.68
63654;BME280;49809;47.418;19.080;2023-03-19T11:39:11;100693.28;;;18.75;27.24
63654;BME280;49809;47.418;19.080;2023-03-19T12:14:28;100658.38;;;17.17;29.78
63654;BME280;49809;47.418;19.080;2023-03-19T12:22:22;100649.44;;;17.03;30.31
63654;BME280;49809;47.418;19.080;2023-03-19T12:35:06;100638.22;;;16.77;30.32
63654;BME280;49809;47.418;19.080;2023-03-19T12:38:39;100625.91;;;17.00;29.86
63654;BME280;49809;47.418;19.080;2023-03-19T12:42:01;100627.75;;;16.80;30.95
63654;BME280;49809;47.418;19.080;2023-03-19T12:45:43;100622.66;;;16.84;30.34
63654;BME280;49809;47.418;19.080;2023-03-19T13:09:52;100592.66;;;16.87;30.68
63654;BME280;49809;47.418;19.080;2023-03-19T13:31:04;100568.09;;;16.03;31.42
63654;BME280;49809;47.418;19.080;2023-03-19T13:55:54;100536.84;;;15.75;31.94
63654;BME280;49809;47.418;19.080;2023-03-19T14:25:18;100520.69;;;16.90;30.12
63654;BME280;49809;47.418;19.080;2023-03-19T14:29:00;100522.88;;;16.88;29.55
63654;BME280;49809;47.418;19.080;2023-03-19T14:32:33;100517.44;;;16.75;29.83
63654;BME280;49809;47.418;19.080;2023-03-19T14:40:49;100512.72;;;16.38;30.91
63654;BME280;49809;47.418;19.080;2023-03-19T14:44:21;100509.09;;;16.52;31.30
63654;BME280;49809;47.418;19.080;2023-03-19T15:01:50;100521.72;;;17.32;29.76
63654;BME280;49809;47.418;19.080;2023-03-19T15:05:37;100507.84;;;17.11;30.09
63654;BME280;49809;47.418;19.080;2023-03-19T15:13:29;100506.31;;;17.05;30.54
63654;BME280;49809;47.418;19.080;2023-03-19T15:21:12;100512.66;;;16.90;30.79
63654;BME280;49809;47.418;19.080;2023-03-19T15:33:17;100511.22;;;16.03;35.42
63654;BME280;49809;47.418;19.080;2023-03-19T15:37:12;100511.03;;;15.94;33.66
63654;BME280;49809;47.418;19.080;2023-03-19T15:40:55;100519.88;;;15.61;33.91
63654;BME280;49809;47.418;19.080;2023-03-19T15:44:43;100530.59;;;15.56;34.56
63654;BME280;49809;47.418;19.080;2023-03-19T15:52:18;100506.38;;;15.81;33.49
63654;BME280;49809;47.418;19.080;2023-03-19T15:56:03;100516.56;;;15.74;33.82
63654;BME280;49809;47.418;19.080;2023-03-19T15:59:28;100518.22;;;15.65;33.66
63654;BME280;49809;47.418;19.080;2023-03-19T16:03:36;100528.75;;;15.51;34.45
63654;BME280;49809;47.418;19.080;2023-03-19T16:19:33;100538.84;;;14.41;43.63
63654;BME280;49809;47.418;19.080;2023-03-19T16:27:16;100545.00;;;13.71;45.63
63654;BME280;49809;47.418;19.080;2023-03-19T16:30:23;100541.25;;;13.36;45.14
63654;BME280;49809;47.418;19.080;2023-03-19T16:33:59;100538.50;;;13.06;47.84
63654;BME280;49809;47.418;19.080;2023-03-19T16:37:26;100535.72;;;12.76;48.41
63654;BME280;49809;47.418;19.080;2023-03-19T16:41:15;100541.19;;;12.49;47.85
63654;BME280;49809;47.418;19.080;2023-03-19T16:44:26;100548.19;;;12.23;47.50
63654;BME280;49809;47.418;19.080;2023-03-19T16:47:57;100556.09;;;12.13;50.93
63654;BME280;49809;47.418;19.080;2023-03-19T16:55:24;100557.97;;;11.81;51.61
63654;BME280;49809;47.418;19.080;2023-03-19T16:59:00;100565.25;;;11.68;50.99
63654;BME280;49809;47.418;19.080;2023-03-19T17:02:25;100563.81;;;11.56;50.38
63654;BME280;49809;47.418;19.080;2023-03-19T17:05:32;100564.00;;;11.49;50.68
63654;BME280;49809;47.418;19.080;2023-03-19T17:09:15;100563.94;;;11.44;51.20
63654;BME280;49809;47.418;19.080;2023-03-19T17:12:38;100566.78;;;11.38;53.04
63654;BME280;49809;47.418;19.080;2023-03-19T17:16:06;100581.34;;;11.35;56.29
63654;BME280;49809;47.418;19.080;2023-03-19T17:19:34;100571.25;;;11.32;55.71
63654;BME280;49809;47.418;19.080;2023-03-19T17:27:06;100571.63;;;11.19;55.95
63654;BME280;49809;47.418;19.080;2023-03-19T17:30:33;100585.31;;;11.11;55.90
63654;BME280;49809;47.418;19.080;2023-03-19T17:34:22;100583.13;;;11.03;55.60
63654;BME280;49809;47.418;19.080;2023-03-19T17:42:22;100581.88;;;10.88;55.69
63654;BME280;49809;47.418;19.080;2023-03-19T17:45:59;100575.72;;;10.83;55.76
63654;BME280;49809;47.418;19.080;2023-03-19T17:49:03;100583.03;;;10.76;55.71
63654;BME280;49809;47.418;19.080;2023-03-19T17:52:16;100587.22;;;10.72;56.08
63654;BME280;49809;47.418;19.080;2023-03-19T18:00:06;100581.56;;;10.63;56.60
63654;BME280;49809;47.418;19.080;2023-03-19T18:07:44;100581.47;;;10.58;58.74
63654;BME280;49809;47.418;19.080;2023-03-19T18:10:50;100582.75;;;10.56;59.93
63654;BME280;49809;47.418;19.080;2023-03-19T18:14:22;100583.25;;;10.53;59.67
63654;BME280;49809;47.418;19.080;2023-03-19T18:18:00;100574.44;;;10.47;58.48
63654;BME280;49809;47.418;19.080;2023-03-19T18:21:04;100574.12;;;10.43;58.38
63654;BME280;49809;47.418;19.080;2023-03-19T18:24:28;100570.09;;;10.41;57.95
63654;BME280;49809;47.418;19.080;2023-03-19T18:31:23;100578.47;;;10.50;57.28
63654;BME280;49809;47.418;19.080;2023-03-19T18:34:46;100580.50;;;10.64;52.40
63654;BME280;49809;47.418;19.080;2023-03-19T18:38:18;100580.19;;;10.61;56.21
63654;BME280;49809;47.418;19.080;2023-03-19T18:41:24;100583.91;;;10.60;54.50
63654;BME280;49809;47.418;19.080;2023-03-19T18:45:08;100578.25;;;10.56;55.75
63654;BME280;49809;47.418;19.080;2023-03-19T18:48:19;100577.16;;;10.52;56.72
63654;BME280;49809;47.418;19.080;2023-03-19T18:51:23;100578.19;;;10.51;56.47
63654;BME280;49809;47.418;19.080;2023-03-19T18:54:34;100582.94;;;10.49;57.52
63654;BME280;49809;47.418;19.080;2023-03-19T19:05:40;100586.97;;;10.35;58.29
63654;BME280;49809;47.418;19.080;2023-03-19T19:08:44;100587.78;;;10.35;56.89
63654;BME280;49809;47.418;19.080;2023-03-19T19:12:23;100588.00;;;10.34;56.93
63654;BME280;49809;47.418;19.080;2023-03-19T19:15:34;100589.06;;;10.33;56.29
63654;BME280;49809;47.418;19.080;2023-03-19T19:18:37;100592.00;;;10.36;53.87
63654;BME280;49809;47.418;19.080;2023-03-19T19:21:42;100587.13;;;10.45;54.15
63654;BME280;49809;47.418;19.080;2023-03-19T19:24:46;100586.78;;;10.41;55.51
63654;BME280;49809;47.418;19.080;2023-03-19T19:31:40;100593.88;;;10.36;56.65
63654;BME280;49809;47.418;19.080;2023-03-19T19:39:12;100606.22;;;10.30;58.05
63654;BME280;49809;47.418;19.080;2023-03-19T19:42:38;100599.63;;;10.33;56.59
63654;BME280;49809;47.418;19.080;2023-03-19T19:46:22;100599.87;;;10.31;55.63
63654;BME280;49809;47.418;19.080;2023-03-19T19:50:15;100598.59;;;10.34;54.82
63654;BME280;49809;47.418;19.080;2023-03-19T19:53:42;100602.59;;;10.36;56.62
63654;BME280;49809;47.418;19.080;2023-03-19T19:57:20;100598.53;;;10.29;56.25
63654;BME280;49809;47.418;19.080;2023-03-19T20:01:18;100594.25;;;10.28;57.65
63654;BME280;49809;47.418;19.080;2023-03-19T20:12:57;100594.09;;;10.18;56.51
63654;BME280;49809;47.418;19.080;2023-03-19T20:16:03;100594.38;;;10.16;56.28
63654;BME280;49809;47.418;19.080;2023-03-19T20:19:05;100593.56;;;10.16;56.21
63654;BME280;49809;47.418;19.080;2023-03-19T20:22:09;100587.59;;;10.09;58.05
63654;BME280;49809;47.418;19.080;2023-03-19T20:25:16;100589.84;;;10.00;57.32
63654;BME280;49809;47.418;19.080;2023-03-19T20:28:28;100585.28;;;9.95;57.31
63654;BME280;49809;47.418;19.080;2023-03-19T20:35:39;100595.44;;;9.87;56.82
63654;BME280;49809;47.418;19.080;2023-03-19T20:39:03;100591.25;;;9.74;57.59
63654;BME280;49809;47.418;19.080;2023-03-19T20:42:39;100594.78;;;9.63;58.80
63654;BME280;49809;47.418;19.080;2023-03-19T20:46:20;100593.53;;;9.54;59.20
63654;BME280;49809;47.418;19.080;2023-03-19T20:49:38;100598.56;;;9.39;59.85
63654;BME280;49809;47.418;19.080;2023-03-19T20:53:04;100590.34;;;9.24;60.45
63654;BME280;49809;47.418;19.080;2023-03-19T20:56:13;100599.22;;;9.06;60.91
63654;BME280;49809;47.418;19.080;2023-03-19T20:59:17;100601.41;;;8.97;59.87
63654;BME280;49809;47.418;19.080;2023-03-19T21:02:31;100595.12;;;8.87;61.22
63654;BME280;49809;47.418;19.080;2023-03-19T21:05:36;100590.09;;;8.73;60.66
63654;BME280;49809;47.418;19.080;2023-03-19T21:08:44;100599.19;;;8.66;61.67
63654;BME280;49809;47.418;19.080;2023-03-19T21:12:31;100583.25;;;8.49;63.74
63654;BME280;49809;47.418;19.080;2023-03-19T21:15:54;100587.84;;;8.31;63.75
63654;BME280;49809;47.418;19.080;2023-03-19T21:18:58;100587.34;;;8.22;65.88
63654;BME280;49809;47.418;19.080;2023-03-19T21:22:04;100590.09;;;8.27;63.96
63654;BME280;49809;47.418;19.080;2023-03-19T21:25:41;100575.44;;;8.43;62.51
63654;BME280;49809;47.418;19.080;2023-03-19T21:29:51;100584.97;;;8.44;62.41
63654;BME280;49809;47.418;19.080;2023-03-19T21:32:48;100578.22;;;8.36;63.85
63654;BME280;49809;47.418;19.080;2023-03-19T21:35:52;100580.94;;;8.29;64.58
63654;BME280;49809;47.418;19.080;2023-03-19T21:38:55;100584.03;;;8.38;61.94
63654;BME280;49809;47.418;19.080;2023-03-19T21:42:05;100581.06;;;8.35;63.37
63654;BME280;49809;47.418;19.080;2023-03-19T21:46:02;100591.25;;;8.43;61.41
63654;BME280;49809;47.418;19.080;2023-03-19T21:53:31;100581.53;;;8.32;63.59
63654;BME280;49809;47.418;19.080;2023-03-19T22:05:36;100573.22;;;8.28;62.93
63654;BME280;49809;47.418;19.080;2023-03-19T22:08:39;100569.44;;;8.24;62.78
63654;BME280;49809;47.418;19.080;2023-03-19T22:11:45;100562.34;;;8.24;63.12
63654;BME280;49809;47.418;19.080;2023-03-19T22:14:48;100566.72;;;8.31;62.19
63654;BME280;49809;47.418;19.080;2023-03-19T22:22:32;100553.19;;;8.39;62.20
63654;BME280;49809;47.418;19.080;2023-03-19T22:25:55;100550.44;;;8.45;61.74
63654;BME280;49809;47.418;19.080;2023-03-19T22:29:04;100554.69;;;8.46;61.79
63654;BME280;49809;47.418;19.080;2023-03-19T22:32:19;100548.13;;;8.49;62.83
63654;BME280;49809;47.418;19.080;2023-03-19T22:35:22;100551.09;;;8.52;61.82
63654;BME280;49809;47.418;19.080;2023-03-19T22:38:25;100551.91;;;8.53;61.76
63654;BME280;49809;47.418;19.080;2023-03-19T22:41:34;100546.19;;;8.56;61.47
63654;BME280;49809;47.418;19.080;2023-03-19T22:44:42;100549.84;;;8.55;61.55
63654;BME280;49809;47.418;19.080;2023-03-19T22:47:46;100542.75;;;8.55;61.66
63654;BME280;49809;47.418;19.080;2023-03-19T22:50:50;100552.28;;;8.56;61.96
63654;BME280;49809;47.418;19.080;2023-03-19T22:53:53;100549.06;;;8.54;61.57
63654;BME280;49809;47.418;19.080;2023-03-19T22:57:36;100545.37;;;8.55;61.31